Time;durP1;ratioP1;P1;durP2;ratioP2;P2;SDS_P1;SDS_P2;PMS_P1;PMS_P2;Temp;Humidity;BMP_temperature;BMP_pressure;BME280_temperature;BME280_humidity;BME280_pressure;Samples;Min_cycle;Max_cycle;Signal;HPM_P1;HPM_P2
2022/07/15 00:01:41;;;;;;;12.30;3.55;;;;;;;18.46;54.14;102167.84;5086862;28;20038;-72
2022/07/15 00:04:06;;;;;;;10.38;3.40;;;;;;;18.44;53.87;102167.31;5071809;28;20032;-71
2022/07/15 00:06:31;;;;;;;9.75;3.40;;;;;;;18.36;53.96;102168.66;5069637;28;20040;-71
2022/07/15 00:08:57;;;;;;;11.43;3.63;;;;;;;18.31;54.17;102165.81;5072387;28;20090;-72
2022/07/15 00:11:22;;;;;;;10.18;3.40;;;;;;;18.34;54.27;102165.28;5079273;28;20028;-71
2022/07/15 00:13:47;;;;;;;11.98;3.75;;;;;;;18.33;54.24;102163.59;5088194;28;20040;-71
2022/07/15 00:16:13;;;;;;;10.43;3.30;;;;;;;18.25;54.30;102167.75;5102632;28;20406;-71
2022/07/15 00:18:40;;;;;;;14.70;3.78;;;;;;;18.19;54.60;102166.03;5083139;28;20036;-71
2022/07/15 00:21:05;;;;;;;9.95;3.38;;;;;;;18.12;54.58;102163.47;5070824;28;20032;-71
2022/07/15 00:23:31;;;;;;;9.90;3.20;;;;;;;18.21;54.34;102169.44;5075648;28;20735;-71
2022/07/15 00:25:56;;;;;;;11.40;3.30;;;;;;;18.10;54.54;102176.09;5075719;28;20028;-71
2022/07/15 00:28:21;;;;;;;10.77;3.35;;;;;;;18.13;54.41;102170.78;5071630;28;20036;-71
2022/07/15 00:30:46;;;;;;;7.18;3.50;;;;;;;18.06;54.51;102161.75;5087904;28;20031;-71
2022/07/15 00:33:12;;;;;;;9.45;3.53;;;;;;;18.01;54.61;102161.72;5102172;28;20135;-71
2022/07/15 00:35:38;;;;;;;10.23;3.40;;;;;;;17.95;54.81;102167.56;5087084;28;20035;-71
2022/07/15 00:38:06;;;;;;;9.00;3.35;;;;;;;17.98;54.77;102169.84;5074841;28;20372;-71
2022/07/15 00:40:39;;;;;;;11.02;3.00;;;;;;;17.94;54.78;102160.28;5070860;28;20124;-71
2022/07/15 00:43:05;;;;;;;8.35;3.22;;;;;;;17.92;54.88;102166.19;5073971;28;20111;-71
2022/07/15 00:45:31;;;;;;;10.70;3.03;;;;;;;17.96;54.64;102158.91;5087609;28;20021;-71
2022/07/15 00:47:56;;;;;;;7.55;3.10;;;;;;;17.90;54.69;102163.63;5074028;28;20040;-71
2022/07/15 00:50:25;;;;;;;11.27;3.30;;;;;;;17.87;54.81;102164.16;5074618;28;20037;-71
2022/07/15 00:53:16;;;;;;;9.43;3.30;;;;;;;17.87;54.83;102164.16;5087247;28;20567;-71
2022/07/15 00:55:43;;;;;;;11.38;3.22;;;;;;;17.84;54.92;102166.66;5091713;28;20069;-70
2022/07/15 00:58:17;;;;;;;7.20;3.10;;;;;;;17.81;55.04;102158.78;5085663;28;20111;-71
2022/07/15 01:00:44;;;;;;;10.93;3.13;;;;;;;17.79;54.96;102159.03;5085671;28;20036;-71
2022/07/15 01:03:10;;;;;;;8.77;2.70;;;;;;;17.77;55.00;102161.28;5081471;28;20477;-71
2022/07/15 01:05:37;;;;;;;9.73;3.10;;;;;;;17.73;55.15;102157.28;5074879;28;20112;-71
2022/07/15 01:08:03;;;;;;;9.43;3.30;;;;;;;17.72;55.27;102152.78;5075146;28;20050;-71
2022/07/15 01:10:29;;;;;;;9.40;2.90;;;;;;;17.69;55.11;102158.94;5081918;28;20024;-71
2022/07/15 01:12:54;;;;;;;7.05;2.95;;;;;;;17.66;55.28;102151.91;5107517;28;20490;-71
2022/07/15 01:15:20;;;;;;;9.63;2.80;;;;;;;17.65;55.23;102157.81;5073770;28;20499;-71
2022/07/15 01:17:46;;;;;;;6.80;2.70;;;;;;;17.58;55.47;102152.41;5074034;28;20112;-71
2022/07/15 01:20:13;;;;;;;8.25;2.83;;;;;;;17.57;55.63;102147.06;5102237;28;20122;-71
2022/07/15 01:22:39;;;;;;;8.25;2.45;;;;;;;17.57;55.43;102161.09;5073874;28;20033;-71
2022/07/15 01:25:05;;;;;;;10.18;2.78;;;;;;;17.57;55.46;102155.50;5081462;28;20024;-71
2022/07/15 01:27:32;;;;;;;9.32;3.10;;;;;;;17.57;55.62;102150.72;5094750;28;20028;-71
2022/07/15 01:29:59;;;;;;;8.27;2.50;;;;;;;17.50;55.58;102161.31;5087971;28;20031;-71
2022/07/15 01:32:24;;;;;;;10.23;3.50;;;;;;;17.49;55.77;102164.38;5084315;28;20032;-71
2022/07/15 01:34:50;;;;;;;8.52;2.90;;;;;;;17.45;55.76;102166.03;5073530;28;20430;-70
2022/07/15 01:37:16;;;;;;;8.70;2.60;;;;;;;17.40;55.90;102170.50;5073512;28;20040;-71
2022/07/15 01:39:42;;;;;;;14.20;3.00;;;;;;;17.38;55.89;102169.94;5074345;28;20040;-71
2022/07/15 01:42:07;;;;;;;11.25;2.78;;;;;;;17.34;55.97;102168.75;5084023;28;20069;-71
2022/07/15 01:44:32;;;;;;;9.60;2.88;;;;;;;17.35;56.18;102172.41;5073603;28;20036;-71
2022/07/15 01:46:58;;;;;;;11.82;2.63;;;;;;;17.36;56.09;102172.13;5084351;28;20464;-72
2022/07/15 01:49:25;;;;;;;11.55;3.10;;;;;;;17.28;56.15;102175.44;5105625;28;20040;-72
2022/07/15 01:51:54;;;;;;;8.75;2.50;;;;;;;17.27;56.17;102182.16;5086439;28;20028;-71
2022/07/15 01:54:25;;;;;;;9.40;3.35;;;;;;;17.20;56.24;102177.88;5091660;28;20038;-71
2022/07/15 01:56:51;;;;;;;10.57;3.33;;;;;;;17.20;56.35;102177.88;5082067;28;20031;-71
2022/07/15 01:59:18;;;;;;;9.02;2.75;;;;;;;17.13;56.59;102173.34;5082149;28;20102;-71
2022/07/15 02:01:44;;;;;;;9.70;2.83;;;;;;;17.13;56.54;102178.09;5085321;28;20110;-71
2022/07/15 02:04:12;;;;;;;9.30;2.75;;;;;;;17.11;56.53;102180.31;5093513;28;20038;-71
2022/07/15 02:06:37;;;;;;;9.85;3.00;;;;;;;17.04;56.61;102180.53;5082851;28;20045;-71
2022/07/15 02:09:02;;;;;;;7.80;2.65;;;;;;;17.05;56.78;102178.56;5073980;28;20525;-71
2022/07/15 02:11:28;;;;;;;8.45;2.75;;;;;;;17.06;56.81;102175.50;5072356;28;20031;-71
2022/07/15 02:13:59;;;;;;;7.88;2.88;;;;;;;17.05;56.82;102173.78;5088635;28;20031;-71
2022/07/15 02:16:31;;;;;;;10.10;2.78;;;;;;;17.05;56.81;102179.41;5114449;28;20047;-71
2022/07/15 02:18:57;;;;;;;5.72;2.85;;;;;;;16.97;57.10;102177.06;5089809;28;20017;-71
2022/07/15 02:21:23;;;;;;;7.10;2.95;;;;;;;17.01;56.93;102171.78;5078674;28;20046;-71
2022/07/15 02:23:48;;;;;;;12.13;3.00;;;;;;;16.96;56.91;102166.13;5079781;28;20502;-71
2022/07/15 02:26:14;;;;;;;9.02;2.63;;;;;;;16.94;57.00;102169.22;5091056;28;20039;-71
2022/07/15 02:28:39;;;;;;;9.30;2.83;;;;;;;16.92;57.13;102169.47;5103266;28;20024;-71
2022/07/15 02:31:05;;;;;;;8.10;3.00;;;;;;;16.88;57.18;102178.66;5078489;28;20043;-71
2022/07/15 02:33:31;;;;;;;7.75;2.58;;;;;;;16.91;57.24;102164.97;5075433;28;20020;-71
2022/07/15 02:35:56;;;;;;;7.63;2.65;;;;;;;16.88;57.37;102168.28;5073771;28;20067;-71
2022/07/15 02:38:22;;;;;;;11.07;3.50;;;;;;;16.89;56.98;102169.97;5073148;28;20024;-70
2022/07/15 02:40:48;;;;;;;9.85;2.63;;;;;;;16.88;57.32;102171.09;5072113;28;20025;-71
2022/07/15 02:43:13;;;;;;;10.43;3.13;;;;;;;16.88;57.46;102173.91;5079674;28;20031;-71
2022/07/15 02:45:39;;;;;;;10.93;2.90;;;;;;;16.81;57.58;102176.06;5093477;28;20418;-71
2022/07/15 02:48:05;;;;;;;11.00;2.90;;;;;;;16.84;57.39;102169.94;5092682;28;20111;-71
2022/07/15 02:50:31;;;;;;;7.53;2.80;;;;;;;16.75;57.63;102174.31;5088981;28;20430;-71
2022/07/15 02:52:57;;;;;;;8.55;2.67;;;;;;;16.77;57.45;102180.50;5076312;28;20048;-71
2022/07/15 02:55:22;;;;;;;8.95;2.83;;;;;;;16.71;57.80;102180.69;5087264;28;20416;-70
2022/07/15 02:57:48;;;;;;;9.40;3.05;;;;;;;16.71;57.79;102180.69;5079014;28;20033;-71
2022/07/15 03:00:17;;;;;;;7.63;2.72;;;;;;;16.65;57.82;102176.97;5076752;28;20045;-71
2022/07/15 03:02:43;;;;;;;10.57;3.40;;;;;;;16.67;57.79;102191.56;5071700;28;20119;-71
2022/07/15 03:05:09;;;;;;;7.55;2.83;;;;;;;16.68;57.69;102196.06;5072172;28;20120;-71
2022/07/15 03:07:34;;;;;;;9.02;3.13;;;;;;;16.65;57.61;102194.63;5071617;28;20041;-71
2022/07/15 03:09:59;;;;;;;13.10;3.30;;;;;;;16.69;57.54;102208.97;5077596;28;20490;-71
2022/07/15 03:12:25;;;;;;;8.55;3.25;;;;;;;16.61;57.59;102206.63;5092749;28;20024;-71
2022/07/15 03:14:50;;;;;;;9.75;3.47;;;;;;;16.62;57.79;102200.78;5079181;28;20476;-71
2022/07/15 03:17:16;;;;;;;7.60;3.10;;;;;;;16.59;57.81;102206.91;5081204;28;20521;-71
2022/07/15 03:19:41;;;;;;;6.60;2.90;;;;;;;16.56;57.96;102204.59;5091403;28;20034;-71
2022/07/15 03:22:07;;;;;;;8.70;3.08;;;;;;;16.54;57.85;102209.63;5091929;28;20115;-71
2022/07/15 03:24:32;;;;;;;10.32;3.08;;;;;;;16.50;57.82;102216.84;5083391;28;20119;-71
2022/07/15 03:26:58;;;;;;;6.72;3.13;;;;;;;16.43;58.17;102214.25;5113134;28;20115;-71
2022/07/15 03:29:23;;;;;;;6.32;3.00;;;;;;;16.42;58.30;102217.31;5090538;28;20112;-71
2022/07/15 03:31:49;;;;;;;9.35;3.25;;;;;;;16.41;58.25;102227.66;5072201;28;20051;-71
2022/07/15 03:34:14;;;;;;;6.07;3.10;;;;;;;16.38;58.25;102221.72;5077899;28;20114;-70
2022/07/15 03:36:40;;;;;;;10.60;3.20;;;;;;;16.40;58.26;102228.78;5087801;28;20024;-71
2022/07/15 03:39:06;;;;;;;5.60;3.00;;;;;;;16.38;58.32;102227.34;5082373;28;20025;-70
2022/07/15 03:41:32;;;;;;;10.35;3.80;;;;;;;16.40;58.45;102231.59;5090048;28;20033;-71
2022/07/15 03:43:57;;;;;;;7.18;3.40;;;;;;;16.39;58.34;102227.09;5078644;28;20437;-71
2022/07/15 03:46:23;;;;;;;9.85;3.53;;;;;;;16.37;58.52;102228.44;5074289;28;20080;-71
2022/07/15 03:48:49;;;;;;;13.88;3.60;;;;;;;16.34;58.68;102242.97;5071336;28;20105;-70
2022/07/15 03:51:15;;;;;;;8.30;3.08;;;;;;;16.37;58.56;102243.31;5070873;28;20387;-71
2022/07/15 03:53:40;;;;;;;8.50;3.70;;;;;;;16.34;58.85;102240.16;5071807;28;20028;-70
2022/07/15 03:56:06;;;;;;;8.73;3.33;;;;;;;16.38;58.90;102241.34;5112483;28;20036;-70
2022/07/15 03:58:31;;;;;;;10.63;3.55;;;;;;;16.39;59.09;102243.91;5088247;28;20040;-71
2022/07/15 04:00:57;;;;;;;7.70;3.47;;;;;;;16.35;58.99;102248.34;5075697;28;20097;-71
2022/07/15 04:03:22;;;;;;;11.38;3.35;;;;;;;16.31;59.19;102249.97;5070818;28;20028;-71
2022/07/15 04:05:48;;;;;;;10.65;3.70;;;;;;;16.39;59.07;102240.25;5071125;28;20036;-70
2022/07/15 04:08:13;;;;;;;8.93;3.30;;;;;;;16.39;59.26;102243.06;5071667;28;20091;-71
2022/07/15 04:10:38;;;;;;;9.77;3.35;;;;;;;16.36;59.41;102247.22;5106000;28;20084;-71
2022/07/15 04:13:03;;;;;;;6.95;3.42;;;;;;;16.41;59.33;102244.47;5111797;28;20703;-71
2022/07/15 04:15:29;;;;;;;9.15;3.70;;;;;;;16.43;59.25;102247.03;5110577;28;20039;-71
2022/07/15 04:17:55;;;;;;;8.45;3.40;;;;;;;16.38;59.41;102256.19;5096706;28;20028;-71
2022/07/15 04:20:20;;;;;;;13.10;3.75;;;;;;;16.40;59.40;102245.59;5075865;28;20060;-71
2022/07/15 04:22:49;;;;;;;8.13;3.72;;;;;;;16.42;59.60;102251.78;5075539;28;20087;-71
2022/07/15 04:25:17;;;;;;;10.98;3.90;;;;;;;16.41;59.76;102249.25;5075067;28;20028;-71
2022/07/15 04:27:42;;;;;;;9.00;3.85;;;;;;;16.44;59.58;102246.78;5076981;28;20142;-71
2022/07/15 04:30:08;;;;;;;13.95;4.07;;;;;;;16.43;59.59;102249.84;5102965;28;20457;-71
2022/07/15 04:32:34;;;;;;;10.60;3.72;;;;;;;16.44;59.97;102254.34;5074851;28;20031;-71
2022/07/15 04:35:01;;;;;;;8.10;3.85;;;;;;;16.43;59.97;102247.88;5077922;28;20387;-71
2022/07/15 04:37:27;;;;;;;8.75;3.85;;;;;;;16.38;60.05;102246.94;5079738;28;20456;-71
2022/07/15 04:39:52;;;;;;;10.60;4.03;;;;;;;16.38;60.12;102250.59;5094685;28;20085;-71
2022/07/15 04:42:17;;;;;;;6.20;3.63;;;;;;;16.41;60.29;102252.88;5094680;28;20084;-71
2022/07/15 04:44:42;;;;;;;9.52;4.13;;;;;;;16.45;60.19;102259.66;5075859;28;20491;-71
2022/07/15 04:47:08;;;;;;;8.80;4.15;;;;;;;16.45;60.19;102253.22;5078882;28;20384;-71
2022/07/15 04:52:17;;;;;;;11.85;3.50;;;;;;;16.49;60.35;102262.81;5083197;28;20426;-71
2022/07/15 04:54:42;;;;;;;10.60;3.80;;;;;;;16.54;60.08;102260.06;5081070;28;20033;-71
2022/07/15 04:57:09;;;;;;;10.38;3.50;;;;;;;16.54;59.98;102256.41;5081982;28;20019;-71
2022/07/15 04:59:34;;;;;;;11.07;3.42;;;;;;;16.55;59.91;102256.19;5077635;28;20055;-71
2022/07/15 05:01:59;;;;;;;15.95;3.60;;;;;;;16.59;59.80;102259.31;5081138;28;20451;-71
2022/07/15 05:04:26;;;;;;;9.05;3.38;;;;;;;16.63;59.69;102261.34;5095187;28;20495;-72
2022/07/15 05:06:51;;;;;;;15.38;3.75;;;;;;;16.58;59.68;102261.25;5090597;28;20044;-71
2022/07/15 05:09:16;;;;;;;10.68;3.70;;;;;;;16.60;59.70;102266.59;5074221;28;20123;-71
2022/07/15 05:11:42;;;;;;;10.38;3.72;;;;;;;16.62;59.65;102264.38;5075920;28;20028;-71
2022/07/15 05:14:07;;;;;;;15.32;3.75;;;;;;;16.60;59.70;102255.41;5076532;28;20035;-71
2022/07/15 05:16:32;;;;;;;11.43;3.40;;;;;;;16.58;59.94;102260.41;5073760;28;20506;-71
2022/07/15 05:18:58;;;;;;;8.35;3.33;;;;;;;16.62;59.83;102262.44;5085001;28;20048;-71
2022/07/15 05:21:23;;;;;;;11.40;4.00;;;;;;;16.62;59.72;102262.44;5079810;28;20025;-71
2022/07/15 05:23:48;;;;;;;7.22;3.22;;;;;;;16.64;59.91;102267.78;5112194;28;20042;-71
2022/07/15 05:26:14;;;;;;;10.60;3.50;;;;;;;16.65;59.70;102270.31;5095864;28;20024;-71
2022/07/15 05:28:39;;;;;;;8.68;3.70;;;;;;;16.69;59.78;102256.63;5083779;28;20383;-71
2022/07/15 05:31:08;;;;;;;10.95;3.50;;;;;;;16.75;59.48;102258.44;5092066;28;20061;-71
2022/07/15 05:33:33;;;;;;;10.63;3.13;;;;;;;16.79;59.47;102265.22;5074213;28;20020;-71
2022/07/15 05:35:58;;;;;;;6.07;2.85;;;;;;;16.81;59.40;102270.56;5080737;28;20080;-71
2022/07/15 05:38:24;;;;;;;8.23;2.88;;;;;;;16.92;59.25;102258.38;5091459;28;20028;-71
2022/07/15 05:40:49;;;;;;;7.75;3.10;;;;;;;16.94;59.43;102258.97;5092826;28;20028;-71
2022/07/15 05:43:15;;;;;;;11.70;2.97;;;;;;;17.00;59.31;102257.06;5073630;28;20020;-71
2022/07/15 05:45:40;;;;;;;7.43;3.00;;;;;;;17.01;59.29;102256.78;5081842;28;20043;-71
2022/07/15 05:48:06;;;;;;;6.05;3.20;;;;;;;17.09;59.16;102261.06;5078257;28;20133;-71
2022/07/15 05:50:31;;;;;;;6.15;2.75;;;;;;;17.10;59.08;102258.03;5086189;28;20044;-71
2022/07/15 05:52:56;;;;;;;13.43;3.17;;;;;;;17.25;58.56;102254.56;5074835;28;20021;-71
2022/07/15 05:55:21;;;;;;;8.43;2.55;;;;;;;17.32;58.52;102255.16;5076997;28;20645;-71
2022/07/15 05:57:47;;;;;;;8.80;2.42;;;;;;;17.34;58.26;102255.75;5078522;28;20537;-71
2022/07/15 06:00:13;;;;;;;8.80;2.88;;;;;;;17.40;58.34;102253.84;5089807;28;20039;-71
2022/07/15 06:02:38;;;;;;;10.77;2.92;;;;;;;17.42;57.99;102260.91;5088311;28;20598;-71
2022/07/15 06:05:04;;;;;;;9.02;2.90;;;;;;;17.48;57.92;102258.97;5083614;28;20134;-71
2022/07/15 06:07:29;;;;;;;9.90;2.47;;;;;;;17.57;57.85;102253.75;5089638;28;20097;-71
2022/07/15 06:09:54;;;;;;;6.13;2.45;;;;;;;17.60;57.79;102258.81;5097765;28;20122;-71
2022/07/15 06:12:20;;;;;;;6.57;2.53;;;;;;;17.68;57.48;102258.31;5090919;28;20084;-71
2022/07/15 06:14:45;;;;;;;4.28;1.95;;;;;;;17.76;57.46;102254.22;5088118;28;20033;-71
2022/07/15 06:17:10;;;;;;;8.52;2.63;;;;;;;17.83;57.54;102255.69;5092578;28;20024;-71
2022/07/15 06:19:35;;;;;;;7.93;2.72;;;;;;;17.92;57.23;102253.25;5084707;28;20032;-71
2022/07/15 06:22:01;;;;;;;6.30;2.25;;;;;;;17.98;56.91;102256.94;5078425;28;20020;-71
2022/07/15 06:24:27;;;;;;;11.43;2.50;;;;;;;18.10;56.71;102260.41;5090936;28;20588;-71
2022/07/15 06:26:52;;;;;;;8.10;2.28;;;;;;;18.17;56.46;102249.78;5085506;28;20543;-70
2022/07/15 06:29:18;;;;;;;8.45;2.67;;;;;;;18.27;55.70;102252.63;5087141;28;20143;-70
2022/07/15 06:31:43;;;;;;;6.85;2.13;;;;;;;18.35;55.73;102248.47;5098809;28;20019;-71
2022/07/15 06:34:08;;;;;;;7.00;2.30;;;;;;;18.39;55.92;102253.31;5103782;28;20051;-71
2022/07/15 06:36:34;;;;;;;4.82;1.98;;;;;;;18.51;55.38;102255.91;5089217;28;20189;-70
2022/07/15 06:38:59;;;;;;;7.78;2.17;;;;;;;18.55;55.22;102250.56;5070989;28;20081;-71
2022/07/15 06:41:25;;;;;;;6.30;1.98;;;;;;;18.63;55.02;102256.53;5072750;28;20074;-70
2022/07/15 06:43:50;;;;;;;13.98;1.70;;;;;;;19.05;57.61;102249.13;5072810;28;20052;-68
2022/07/15 06:46:15;;;;;;;3.40;1.20;;;;;;;19.19;56.18;102250.31;5075020;28;20487;-69
2022/07/15 06:48:41;;;;;;;3.17;1.20;;;;;;;19.37;55.68;102258.25;5074356;28;20132;-71
2022/07/15 06:51:07;;;;;;;6.50;1.25;;;;;;;19.47;54.69;102259.38;5093063;28;20024;-70
2022/07/15 06:53:33;;;;;;;3.67;1.48;;;;;;;19.60;54.36;102258.81;5088488;28;20043;-70
2022/07/15 06:55:58;;;;;;;6.75;1.58;;;;;;;19.71;53.21;102257.75;5097626;28;20282;-70
2022/07/15 06:58:23;;;;;;;4.80;1.23;;;;;;;19.77;53.07;102253.81;5073473;28;20639;-69
2022/07/15 07:00:49;;;;;;;3.97;1.40;;;;;;;19.81;53.41;102259.72;5070835;28;20610;-70
2022/07/15 07:03:14;;;;;;;4.82;1.13;;;;;;;19.85;52.61;102250.44;5071585;28;20110;-70
2022/07/15 07:05:39;;;;;;;5.43;1.60;;;;;;;19.88;52.26;102256.63;5077917;28;20040;-70
2022/07/15 07:08:05;;;;;;;6.03;1.25;;;;;;;19.92;52.02;102263.38;5082366;28;20044;-70
2022/07/15 07:10:31;;;;;;;5.32;1.33;;;;;;;19.97;51.50;102258.59;5087520;28;20490;-70
2022/07/15 07:12:56;;;;;;;4.25;1.33;;;;;;;20.04;51.03;102267.63;5111089;28;20519;-69
2022/07/15 07:15:23;;;;;;;6.05;1.17;;;;;;;20.00;50.65;102260.84;5072254;28;20185;-68
2022/07/15 07:17:50;;;;;;;5.97;1.33;;;;;;;20.08;50.35;102268.75;5072851;28;20020;-69
2022/07/15 07:20:15;;;;;;;3.67;0.95;;;;;;;20.13;49.35;102265.06;5091559;28;20130;-69
2022/07/15 07:22:40;;;;;;;3.65;0.80;;;;;;;20.17;49.23;102262.53;5070417;28;20440;-68
2022/07/15 07:25:07;;;;;;;4.32;1.33;;;;;;;20.17;48.92;102266.19;5072096;28;20471;-69
2022/07/15 07:27:32;;;;;;;3.15;1.10;;;;;;;20.19;48.44;102271.53;5079329;28;20040;-68
2022/07/15 07:29:57;;;;;;;3.83;1.10;;;;;;;20.17;48.66;102271.84;5071019;28;20032;-68
2022/07/15 07:32:23;;;;;;;4.15;1.17;;;;;;;20.34;48.30;102265.88;5076312;28;20061;-69
2022/07/15 07:34:48;;;;;;;6.05;1.20;;;;;;;20.37;48.18;102262.50;5075874;28;20113;-70
2022/07/15 07:37:14;;;;;;;3.88;0.82;;;;;;;20.41;47.91;102272.06;5091225;28;20023;-70
2022/07/15 07:39:39;;;;;;;4.85;1.10;;;;;;;20.31;46.63;102267.28;5087793;28;20036;-69
2022/07/15 07:42:04;;;;;;;8.05;1.20;;;;;;;20.51;48.42;102276.88;5084906;28;20024;-70
2022/07/15 07:44:30;;;;;;;6.57;1.33;;;;;;;20.46;48.25;102279.66;5091433;28;20024;-69
2022/07/15 07:46:55;;;;;;;7.13;0.90;;;;;;;20.42;47.26;102281.38;5083365;28;20042;-70
2022/07/15 07:49:21;;;;;;;7.10;1.38;;;;;;;20.58;48.40;102281.06;5078517;28;20372;-69
2022/07/15 07:51:47;;;;;;;4.65;0.98;;;;;;;20.61;48.32;102276.84;5081657;28;20052;-68
2022/07/15 07:54:12;;;;;;;4.18;0.95;;;;;;;20.60;47.24;102275.16;5081326;28;20145;-70
2022/07/15 07:56:38;;;;;;;7.43;1.30;;;;;;;20.62;47.21;102280.50;5073874;28;20268;-71
2022/07/15 07:59:03;;;;;;;4.68;0.98;;;;;;;20.67;47.04;102281.34;5081430;28;20039;-63
2022/07/15 08:01:28;;;;;;;4.20;0.95;;;;;;;20.77;47.08;102267.19;5080548;28;20043;-72
2022/07/15 08:03:54;;;;;;;6.18;0.98;;;;;;;20.76;46.58;102278.78;5075828;28;20024;-65
2022/07/15 08:06:20;;;;;;;4.65;0.93;;;;;;;20.74;46.49;102275.38;5084657;28;20035;-66
2022/07/15 08:08:46;;;;;;;5.07;1.08;;;;;;;20.83;46.15;102276.50;5082225;28;20059;-72
2022/07/15 08:11:12;;;;;;;2.88;0.82;;;;;;;20.86;45.82;102277.88;5083533;28;20469;-72
2022/07/15 08:13:38;;;;;;;4.90;1.13;;;;;;;20.75;45.28;102279.88;5080562;28;20028;-76
2022/07/15 08:16:04;;;;;;;3.47;1.00;;;;;;;20.91;46.32;102275.91;5073232;28;20028;-70
2022/07/15 08:18:30;;;;;;;2.60;1.05;;;;;;;20.97;46.33;102274.72;5075695;28;20063;-68
2022/07/15 08:20:55;;;;;;;6.00;1.10;;;;;;;20.97;45.93;102280.38;5080030;28;20462;-70
2022/07/15 08:23:21;;;;;;;6.90;1.13;;;;;;;20.97;45.79;102279.53;5091714;28;20043;-71
2022/07/15 08:25:48;;;;;;;4.82;1.05;;;;;;;20.99;46.02;102280.94;5083471;28;20043;-68
2022/07/15 08:28:14;;;;;;;4.25;1.08;;;;;;;21.11;45.78;102285.41;5090623;28;20020;-68
2022/07/15 08:30:40;;;;;;;3.42;1.00;;;;;;;21.15;45.29;102281.72;5088832;28;20036;-68
2022/07/15 08:33:05;;;;;;;6.55;1.20;;;;;;;21.04;44.32;102286.56;5110970;28;20161;-68
2022/07/15 08:35:30;;;;;;;2.78;0.85;;;;;;;21.16;44.78;102289.06;5111177;28;20046;-68
2022/07/15 08:37:56;;;;;;;6.85;0.95;;;;;;;21.17;44.32;102287.06;5071689;28;20515;-68
2022/07/15 08:40:23;;;;;;;3.40;0.98;;;;;;;21.23;44.54;102275.47;5069610;28;20482;-68
2022/07/15 08:42:49;;;;;;;2.63;0.88;;;;;;;21.32;44.65;102275.69;5070706;28;20025;-68
2022/07/15 08:45:16;;;;;;;4.13;0.90;;;;;;;21.30;44.19;102272.34;5069374;28;20082;-68
2022/07/15 08:47:43;;;;;;;3.50;0.70;;;;;;;21.30;43.22;102267.53;5110346;28;20031;-68
2022/07/15 08:50:14;;;;;;;5.00;1.10;;;;;;;21.29;43.38;102268.63;5095691;28;20032;-68
2022/07/15 08:52:40;;;;;;;3.72;0.90;;;;;;;21.25;42.75;102261.88;5095288;28;20066;-68
2022/07/15 08:55:06;;;;;;;2.78;1.08;;;;;;;21.35;43.35;102265.84;5070576;28;20064;-68
2022/07/15 08:57:32;;;;;;;5.47;1.02;;;;;;;21.33;42.52;102269.78;5070290;28;20043;-68
2022/07/15 08:59:57;;;;;;;4.50;1.13;;;;;;;21.41;43.30;102265.50;5087902;28;20019;-68
2022/07/15 09:02:23;;;;;;;3.83;0.80;;;;;;;21.36;42.81;102264.69;5091097;28;20040;-68
2022/07/15 09:05:16;;;;;;;3.47;0.90;;;;;;;21.39;43.58;102273.44;5092852;28;20076;-67
2022/07/15 09:07:53;;;;;;;4.90;0.90;;;;;;;21.49;43.57;102275.31;5087348;28;20036;-68
2022/07/15 09:10:19;;;;;;;2.72;0.98;;;;;;;21.49;42.93;102261.19;5093991;28;20039;-71
2022/07/15 09:12:48;;;;;;;3.33;1.02;;;;;;;21.52;43.05;102258.63;5077974;28;20024;-68
2022/07/15 09:15:35;;;;;;;5.78;0.93;;;;;;;21.60;43.59;102256.34;5074437;28;20037;-68
2022/07/15 09:18:13;;;;;;;4.55;0.75;;;;;;;21.66;42.91;102263.66;5085848;28;20024;-67
2022/07/15 09:20:40;;;;;;;4.28;0.60;;;;;;;21.66;41.48;102253.19;5093460;28;20499;-66
2022/07/15 09:23:06;;;;;;;6.32;0.93;;;;;;;21.77;41.96;102266.09;5082287;28;20028;-68
2022/07/15 09:25:33;;;;;;;3.47;0.90;;;;;;;21.75;41.25;102261.88;5081576;28;20361;-69
2022/07/15 09:28:01;;;;;;;2.92;0.75;;;;;;;21.80;41.24;102264.66;5075754;28;20034;-68
2022/07/15 09:33:39;;;;;;;2.33;0.82;;;;;;;21.81;41.08;102253.06;5092877;28;20051;-69
2022/07/15 09:36:21;;;;;;;4.18;1.02;;;;;;;21.80;40.39;102257.00;5087345;28;20058;-68
2022/07/15 09:38:53;;;;;;;2.47;0.80;;;;;;;21.85;40.40;102263.75;5114050;28;20027;-70
2022/07/15 09:41:26;;;;;;;2.58;0.70;;;;;;;21.93;41.22;102257.47;5113164;28;20038;-64
2022/07/15 09:44:09;;;;;;;2.17;0.82;;;;;;;21.90;40.43;102258.09;5085068;28;20024;-69
2022/07/15 09:46:59;;;;;;;3.97;1.30;;;;;;;21.98;41.29;102255.47;5075394;28;20453;-68
2022/07/15 09:49:24;;;;;;;2.65;1.10;;;;;;;22.02;40.63;102252.88;5077900;28;20111;-68
2022/07/15 09:52:00;;;;;;;4.22;0.80;;;;;;;22.02;40.49;102250.91;5100707;28;20230;-69
2022/07/15 09:54:34;;;;;;;1.63;0.73;;;;;;;22.12;41.41;102255.59;5084900;28;20020;-68
2022/07/15 09:57:01;;;;;;;2.13;0.70;;;;;;;22.15;40.75;102257.03;5098265;28;20082;-69
2022/07/15 09:59:29;;;;;;;2.20;0.60;;;;;;;22.10;40.20;102245.75;5074835;28;20028;-68
2022/07/15 10:01:54;;;;;;;5.85;1.10;;;;;;;22.12;40.19;102247.13;5077269;28;20468;-69
2022/07/15 10:04:22;;;;;;;3.22;0.90;;;;;;;22.17;40.82;102249.09;5091460;28;20020;-69
2022/07/15 10:06:50;;;;;;;3.10;0.80;;;;;;;22.21;40.74;102253.03;5082363;28;20068;-69
2022/07/15 10:09:21;;;;;;;1.95;0.63;;;;;;;22.16;40.55;102250.22;5079807;28;20499;-69
2022/07/15 10:11:51;;;;;;;4.32;0.88;;;;;;;22.21;40.33;102250.19;5079218;28;20028;-69
2022/07/15 10:14:32;;;;;;;1.33;0.65;;;;;;;22.27;40.76;102241.34;5097765;28;20099;-68
2022/07/15 10:17:21;;;;;;;2.67;0.68;;;;;;;22.32;40.42;102243.25;5075204;28;20114;-69
2022/07/15 10:20:14;;;;;;;4.70;0.82;;;;;;;22.37;40.50;102240.41;5087379;28;20028;-68
2022/07/15 10:22:50;;;;;;;7.03;1.10;;;;;;;22.43;40.79;102227.88;5076825;28;20102;-69
2022/07/15 10:25:33;;;;;;;3.88;0.80;;;;;;;22.46;39.43;102226.44;5083539;28;20036;-69
2022/07/15 10:28:15;;;;;;;1.88;0.80;;;;;;;22.54;40.05;102223.78;5081491;28;20032;-68
2022/07/15 10:30:42;;;;;;;2.90;0.60;;;;;;;22.56;39.42;102234.81;5078482;28;20031;-70
2022/07/15 10:33:18;;;;;;;3.70;1.00;;;;;;;22.61;39.22;102225.44;5074631;28;20036;-68
2022/07/15 10:35:43;;;;;;;4.35;0.80;;;;;;;22.58;38.77;102229.69;5072114;28;20025;-69
2022/07/15 10:38:22;;;;;;;2.92;0.90;;;;;;;22.60;39.13;102227.41;5090068;28;20368;-69
2022/07/15 10:41:01;;;;;;;2.75;0.90;;;;;;;22.75;39.23;102223.53;5092738;28;20034;-69
2022/07/15 10:43:46;;;;;;;2.60;0.60;;;;;;;22.83;39.73;102219.19;5082045;28;20020;-69
2022/07/15 10:46:17;;;;;;;4.00;0.88;;;;;;;22.81;38.30;102221.50;5074917;28;20036;-70
2022/07/15 10:48:44;;;;;;;2.93;0.67;;;;;;;22.75;37.10;102218.75;5081342;28;20137;-70
2022/07/15 10:51:09;;;;;;;2.65;0.70;;;;;;;22.73;37.01;102221.00;5077969;28;20028;-70
2022/07/15 10:53:47;;;;;;;3.13;0.80;;;;;;;22.65;37.59;102207.53;5080584;28;20043;-70
2022/07/15 10:56:44;;;;;;;1.40;0.60;;;;;;;22.79;38.67;102208.50;5085624;28;20042;-70
2022/07/15 10:59:20;;;;;;;4.10;0.82;;;;;;;22.77;37.63;102205.09;5079535;28;20606;-71
2022/07/15 11:02:10;;;;;;;1.92;0.57;;;;;;;22.77;38.21;102202.28;5080167;28;20438;-70
2022/07/15 11:04:36;;;;;;;2.38;0.63;;;;;;;22.91;37.12;102193.06;5077287;28;20486;-65
2022/07/15 11:07:01;;;;;;;2.83;0.55;;;;;;;22.96;37.12;102195.84;5079050;28;20089;-66
2022/07/15 11:10:04;;;;;;;5.35;0.98;;;;;;;23.00;38.52;102186.44;5093204;28;20044;-66
2022/07/15 11:12:29;;;;;;;5.15;0.93;;;;;;;23.09;38.46;102192.25;5088905;28;20042;-66
2022/07/15 11:15:01;;;;;;;3.47;0.70;;;;;;;23.15;37.79;102193.88;5071068;28;20385;-67
2022/07/15 11:17:29;;;;;;;4.40;0.80;;;;;;;23.19;37.66;102194.09;5083473;28;20027;-67
2022/07/15 11:20:10;;;;;;;2.75;0.85;;;;;;;23.17;37.67;102193.53;5091189;28;20060;-70
2022/07/15 11:22:39;;;;;;;2.83;0.73;;;;;;;23.24;37.95;102192.00;5072671;28;20035;-70
2022/07/15 11:25:05;;;;;;;3.58;0.88;;;;;;;23.30;37.23;102194.75;5094199;28;20021;-70
2022/07/15 11:27:30;;;;;;;2.22;0.50;;;;;;;23.27;37.32;102185.75;5090438;28;20016;-69
2022/07/15 11:30:03;;;;;;;3.20;0.98;;;;;;;23.40;38.04;102186.13;5091655;28;20736;-66
2022/07/15 11:32:31;;;;;;;2.25;0.57;;;;;;;23.48;37.60;102182.56;5099800;28;20379;-70